Time;durP1;ratioP1;P1;durP2;ratioP2;P2;SDS_P1;SDS_P2;PMS_P1;PMS_P2;Temp;Humidity;BMP_temperature;BMP_pressure;BME280_temperature;BME280_humidity;BME280_pressure;Samples;Min_cycle;Max_cycle;Signal;HPM_P1;HPM_P2
2023/11/07 00:01:57;;;;;;;5.63;3.30;;;;;;;;;;10250741;28;20035;-60
2023/11/07 00:07:00;;;;;;;6.55;2.75;;;;;;;;;;10248945;29;20467;-60
2023/11/07 00:12:02;;;;;;;8.32;2.70;;;;;;;;;;10251546;28;20031;-61
2023/11/07 00:17:03;;;;;;;5.00;2.75;;;;;;;;;;10248250;29;20075;-59
2023/11/07 00:22:03;;;;;;;9.05;3.10;;;;;;;;;;10251295;28;20447;-59
2023/11/07 00:27:04;;;;;;;6.85;2.80;;;;;;;;;;10248151;29;20475;-59
2023/11/07 00:32:06;;;;;;;6.40;2.83;;;;;;;;;;10250939;28;20057;-60
2023/11/07 00:37:06;;;;;;;4.88;2.50;;;;;;;;;;10241527;29;20145;-60
2023/11/07 00:42:07;;;;;;;7.40;2.60;;;;;;;;;;10249667;29;20118;-59
2023/11/07 00:47:08;;;;;;;3.15;2.58;;;;;;;;;;10243105;29;20034;-59
2023/11/07 00:52:10;;;;;;;8.93;2.47;;;;;;;;;;10250639;28;20043;-60
2023/11/07 00:57:11;;;;;;;9.52;2.90;;;;;;;;;;10246913;28;20050;-60
2023/11/07 01:02:11;;;;;;;4.82;2.75;;;;;;;;;;10248894;28;20023;-59
2023/11/07 01:07:13;;;;;;;5.25;2.30;;;;;;;;;;10245137;28;20491;-59
2023/11/07 01:12:14;;;;;;;6.05;2.70;;;;;;;;;;10249577;28;20038;-59
2023/11/07 01:17:14;;;;;;;5.45;2.80;;;;;;;;;;10247137;28;20031;-59
2023/11/07 01:22:15;;;;;;;4.30;2.40;;;;;;;;;;10249086;28;20126;-59
2023/11/07 01:27:16;;;;;;;4.28;2.58;;;;;;;;;;10235037;28;20027;-59
2023/11/07 01:32:19;;;;;;;3.83;2.33;;;;;;;;;;10248368;28;20040;-58
2023/11/07 01:37:19;;;;;;;4.38;2.38;;;;;;;;;;10234016;29;20482;-60
2023/11/07 01:42:20;;;;;;;2.80;2.08;;;;;;;;;;10247982;28;20035;-61
2023/11/07 01:47:25;;;;;;;4.53;2.60;;;;;;;;;;10242653;28;20039;-61
2023/11/07 01:52:25;;;;;;;3.53;2.20;;;;;;;;;;10242623;29;20625;-61
2023/11/07 01:57:26;;;;;;;3.25;2.47;;;;;;;;;;10245780;29;20047;-59
2023/11/07 02:02:27;;;;;;;4.03;2.40;;;;;;;;;;10241984;28;20032;-58
2023/11/07 02:07:28;;;;;;;4.75;2.40;;;;;;;;;;10246518;28;20535;-59
2023/11/07 02:12:28;;;;;;;3.25;2.17;;;;;;;;;;10240321;28;20027;-61
2023/11/07 02:17:29;;;;;;;3.63;2.38;;;;;;;;;;10234513;28;20043;-59
2023/11/07 02:22:30;;;;;;;5.40;2.35;;;;;;;;;;10242083;29;20467;-59
2023/11/07 02:27:30;;;;;;;4.45;2.45;;;;;;;;;;10246203;29;20046;-59
2023/11/07 02:32:31;;;;;;;4.63;2.50;;;;;;;;;;10245809;28;20034;-60
2023/11/07 02:37:32;;;;;;;3.00;2.15;;;;;;;;;;10246345;28;20467;-61
2023/11/07 02:42:33;;;;;;;3.03;2.17;;;;;;;;;;10243220;28;20510;-62
2023/11/07 02:47:33;;;;;;;3.53;2.28;;;;;;;;;;10245174;28;20093;-62
2023/11/07 02:52:36;;;;;;;5.22;2.33;;;;;;;;;;10243582;28;20070;-59
2023/11/07 02:57:37;;;;;;;4.63;2.22;;;;;;;;;;10245546;28;20399;-60
2023/11/07 03:02:37;;;;;;;4.57;2.47;;;;;;;;;;10243820;28;20027;-59
2023/11/07 03:07:38;;;;;;;3.75;2.40;;;;;;;;;;10245547;28;20518;-59
2023/11/07 03:12:38;;;;;;;3.38;2.30;;;;;;;;;;10242211;28;20058;-60
2023/11/07 03:17:40;;;;;;;2.83;2.35;;;;;;;;;;10244661;28;20381;-59
2023/11/07 03:22:41;;;;;;;3.95;2.45;;;;;;;;;;10232751;28;20034;-59
2023/11/07 03:27:42;;;;;;;4.35;2.22;;;;;;;;;;10245254;28;20042;-59
2023/11/07 03:32:43;;;;;;;3.92;2.20;;;;;;;;;;10244834;28;20557;-60
2023/11/07 03:37:44;;;;;;;3.38;2.17;;;;;;;;;;10252386;28;20031;-59
2023/11/07 03:42:44;;;;;;;2.75;2.08;;;;;;;;;;10247759;28;20028;-60
2023/11/07 03:47:45;;;;;;;3.40;2.25;;;;;;;;;;10252742;28;20094;-59
2023/11/07 03:52:46;;;;;;;3.47;2.13;;;;;;;;;;10249904;29;20027;-61
2023/11/07 03:57:47;;;;;;;3.20;2.00;;;;;;;;;;10252036;28;20198;-61
2023/11/07 04:02:48;;;;;;;4.18;2.08;;;;;;;;;;10249865;28;20040;-61
2023/11/07 04:07:49;;;;;;;2.88;2.13;;;;;;;;;;10245540;28;20384;-61
2023/11/07 04:12:51;;;;;;;2.95;2.13;;;;;;;;;;10250778;28;20058;-61
2023/11/07 04:17:52;;;;;;;4.38;1.98;;;;;;;;;;10242769;29;20031;-61
2023/11/07 04:22:54;;;;;;;3.38;2.15;;;;;;;;;;10248480;28;20076;-61
2023/11/07 04:27:55;;;;;;;2.80;1.70;;;;;;;;;;10250393;28;20094;-61
2023/11/07 04:32:55;;;;;;;2.88;2.03;;;;;;;;;;10248977;28;20035;-60
2023/11/07 04:37:56;;;;;;;2.40;1.92;;;;;;;;;;10246949;28;20039;-61
2023/11/07 04:42:57;;;;;;;2.35;1.85;;;;;;;;;;10249086;28;20027;-61
2023/11/07 04:47:57;;;;;;;3.25;2.03;;;;;;;;;;10241910;28;20031;-61
2023/11/07 04:52:58;;;;;;;3.30;2.50;;;;;;;;;;10236444;29;20027;-61
2023/11/07 04:57:58;;;;;;;4.10;2.08;;;;;;;;;;10249293;28;20062;-60
2023/11/07 05:02:59;;;;;;;2.58;1.90;;;;;;;;;;10248106;29;20042;-60
2023/11/07 05:07:59;;;;;;;2.88;2.25;;;;;;;;;;10248080;28;20031;-61
2023/11/07 05:13:00;;;;;;;4.03;2.08;;;;;;;;;;10241537;28;20027;-62
2023/11/07 05:18:01;;;;;;;4.03;2.28;;;;;;;;;;10242209;28;20039;-62
2023/11/07 05:23:02;;;;;;;2.22;1.92;;;;;;;;;;10249010;28;20117;-60
2023/11/07 05:28:04;;;;;;;2.22;1.98;;;;;;;;;;10247777;28;20041;-61
2023/11/07 05:33:05;;;;;;;1.75;1.60;;;;;;;;;;10246430;28;20050;-62
2023/11/07 05:38:06;;;;;;;2.63;2.00;;;;;;;;;;10248543;29;20042;-61
2023/11/07 05:43:08;;;;;;;2.40;2.20;;;;;;;;;;10243887;28;20071;-61
2023/11/07 05:48:08;;;;;;;3.75;1.95;;;;;;;;;;10245543;28;20120;-61
2023/11/07 05:53:09;;;;;;;3.00;2.08;;;;;;;;;;10246514;28;20027;-61
2023/11/07 05:58:10;;;;;;;2.92;1.75;;;;;;;;;;10248033;28;20047;-61
2023/11/07 06:03:14;;;;;;;3.33;1.77;;;;;;;;;;10237364;28;20031;-61
2023/11/07 06:08:14;;;;;;;3.42;2.00;;;;;;;;;;10247452;28;20103;-60
2023/11/07 06:13:15;;;;;;;1.90;1.80;;;;;;;;;;10246450;28;20032;-61
2023/11/07 06:18:16;;;;;;;2.42;1.90;;;;;;;;;;10243746;29;20042;-61
2023/11/07 06:23:16;;;;;;;2.88;2.00;;;;;;;;;;10246973;28;20054;-59
2023/11/07 06:28:17;;;;;;;3.53;2.03;;;;;;;;;;10245694;29;20038;-59
2023/11/07 06:33:19;;;;;;;3.78;2.08;;;;;;;;;;10246438;29;20043;-59
2023/11/07 06:38:21;;;;;;;2.85;1.77;;;;;;;;;;10246218;28;20074;-59
2023/11/07 06:43:22;;;;;;;2.83;2.00;;;;;;;;;;10235571;28;20435;-60
2023/11/07 06:48:22;;;;;;;3.55;2.08;;;;;;;;;;10245323;28;20023;-59
2023/11/07 06:53:23;;;;;;;2.22;1.65;;;;;;;;;;10245141;28;20074;-60
2023/11/07 06:58:24;;;;;;;1.98;1.77;;;;;;;;;;10244459;28;20035;-59
2023/11/07 07:03:25;;;;;;;3.05;2.05;;;;;;;;;;10241198;29;20352;-60
2023/11/07 07:08:25;;;;;;;2.45;1.88;;;;;;;;;;10240221;28;20031;-60
2023/11/07 07:13:26;;;;;;;4.05;2.13;;;;;;;;;;10244146;28;20468;-59
2023/11/07 07:18:27;;;;;;;2.70;1.80;;;;;;;;;;10232981;28;20379;-60
2023/11/07 07:23:29;;;;;;;2.05;1.85;;;;;;;;;;10244163;28;20030;-60
2023/11/07 07:28:29;;;;;;;2.50;1.77;;;;;;;;;;10232315;29;20051;-60
2023/11/07 07:33:30;;;;;;;5.07;1.80;;;;;;;;;;10244594;28;20039;-60
2023/11/07 07:38:36;;;;;;;2.95;2.05;;;;;;;;;;10243642;28;20034;-60
2023/11/07 07:43:38;;;;;;;2.05;1.60;;;;;;;;;;10241917;29;20518;-60
2023/11/07 07:48:39;;;;;;;1.80;1.63;;;;;;;;;;10244282;28;20478;-59
2023/11/07 07:53:41;;;;;;;1.95;1.73;;;;;;;;;;10244102;28;20043;-60
2023/11/07 07:58:42;;;;;;;2.22;1.80;;;;;;;;;;10243532;28;20067;-60
2023/11/07 08:03:43;;;;;;;2.80;1.40;;;;;;;;;;10242831;28;20474;-60
2023/11/07 08:08:43;;;;;;;2.88;1.80;;;;;;;;;;10244714;28;20031;-60
2023/11/07 08:13:44;;;;;;;1.50;1.40;;;;;;;;;;10249384;28;20042;-61
2023/11/07 08:18:46;;;;;;;2.88;2.00;;;;;;;;;;10248997;29;20023;-59
2023/11/07 08:23:47;;;;;;;1.70;1.60;;;;;;;;;;10250258;28;20046;-60
2023/11/07 08:28:48;;;;;;;1.95;1.40;;;;;;;;;;10248024;28;20035;-59
2023/11/07 08:33:50;;;;;;;2.05;1.80;;;;;;;;;;10249676;29;20532;-59
2023/11/07 08:38:51;;;;;;;2.22;2.00;;;;;;;;;;10249124;29;20059;-58
2023/11/07 08:43:52;;;;;;;6.78;1.88;;;;;;;;;;10249412;28;20046;-59
2023/11/07 08:48:53;;;;;;;9.27;2.00;;;;;;;;;;10247128;28;20053;-59
2023/11/07 08:53:56;;;;;;;3.22;2.10;;;;;;;;;;10224187;28;20118;-60
2023/11/07 08:58:56;;;;;;;2.42;1.80;;;;;;;;;;10246389;28;20067;-59
2023/11/07 09:03:57;;;;;;;2.63;2.03;;;;;;;;;;10235029;28;20387;-59
2023/11/07 09:08:58;;;;;;;9.43;2.20;;;;;;;;;;10250986;28;20423;-59
2023/11/07 09:13:58;;;;;;;4.97;2.10;;;;;;;;;;10246631;28;20043;-60
2023/11/07 09:18:59;;;;;;;2.80;2.33;;;;;;;;;;10247266;28;20034;-59
2023/11/07 09:23:59;;;;;;;3.42;2.13;;;;;;;;;;10243059;28;20028;-60
2023/11/07 09:29:00;;;;;;;9.50;2.30;;;;;;;;;;10241299;28;20514;-60
2023/11/07 09:34:01;;;;;;;10.23;2.20;;;;;;;;;;10245655;28;20479;-60
2023/11/07 09:39:01;;;;;;;2.75;2.10;;;;;;;;;;10245377;28;20078;-60
2023/11/07 09:44:05;;;;;;;3.53;2.13;;;;;;;;;;10237707;28;20038;-60
2023/11/07 09:49:07;;;;;;;5.85;1.90;;;;;;;;;;10245091;28;20031;-59
2023/11/07 09:54:10;;;;;;;2.92;2.08;;;;;;;;;;10229688;28;20035;-60
2023/11/07 09:59:30;;;;;;;2.72;2.20;;;;;;;;;;10243618;28;20056;-59
2023/11/07 10:04:32;;;;;;;5.20;2.00;;;;;;;;;;10245908;28;20528;-60
2023/11/07 10:09:33;;;;;;;2.97;1.70;;;;;;;;;;10244766;28;20401;-60
2023/11/07 10:14:34;;;;;;;2.55;1.88;;;;;;;;;;10244177;28;20050;-59
2023/11/07 10:19:35;;;;;;;3.40;1.90;;;;;;;;;;10244125;28;20031;-59
2023/11/07 10:24:45;;;;;;;3.35;2.20;;;;;;;;;;10243746;28;20138;-59
2023/11/07 10:29:51;;;;;;;3.38;2.33;;;;;;;;;;10240582;28;20035;-60
2023/11/07 10:35:02;;;;;;;2.20;1.75;;;;;;;;;;10248111;28;20394;-59
2023/11/07 10:40:06;;;;;;;2.97;2.03;;;;;;;;;;10242580;28;20164;-60
2023/11/07 10:45:12;;;;;;;3.47;2.17;;;;;;;;;;10234780;28;20031;-59
2023/11/07 10:50:17;;;;;;;3.35;2.25;;;;;;;;;;10237131;28;20060;-58
2023/11/07 10:55:17;;;;;;;3.00;1.88;;;;;;;;;;10242721;28;20114;-58
2023/11/07 11:00:20;;;;;;;3.72;1.90;;;;;;;;;;10231204;28;20031;-59
2023/11/07 11:05:24;;;;;;;1.90;1.55;;;;;;;;;;10241918;28;20046;-59
2023/11/07 11:10:27;;;;;;;2.22;2.03;;;;;;;;;;10236988;28;20035;-59
2023/11/07 11:15:29;;;;;;;3.50;2.08;;;;;;;;;;10247541;28;20035;-60
2023/11/07 11:20:50;;;;;;;5.13;1.88;;;;;;;;;;10254508;28;20027;-60
2023/11/07 11:26:06;;;;;;;4.13;2.15;;;;;;;;;;10238573;28;20182;-60
2023/11/07 11:31:12;;;;;;;5.45;2.30;;;;;;;;;;10241718;28;20118;-60
2023/11/07 11:36:38;;;;;;;3.22;1.92;;;;;;;;;;10239733;28;20032;-61
2023/11/07 11:42:02;;;;;;;3.60;2.10;;;;;;;;;;10240295;28;20400;-60
2023/11/07 11:47:03;;;;;;;4.95;2.35;;;;;;;;;;10244627;28;20058;-61
2023/11/07 11:52:34;;;;;;;4.60;2.13;;;;;;;;;;10249274;28;20077;-58
2023/11/07 11:58:11;;;;;;;3.63;2.10;;;;;;;;;;10250727;28;20054;-59
2023/11/07 12:03:16;;;;;;;4.38;2.20;;;;;;;;;;10242539;28;20471;-59
2023/11/07 12:08:32;;;;;;;2.00;1.80;;;;;;;;;;10250231;28;20483;-59
2023/11/07 12:13:34;;;;;;;4.20;2.15;;;;;;;;;;10248564;28;20035;-60
2023/11/07 12:18:46;;;;;;;4.05;1.90;;;;;;;;;;10239190;28;20039;-59
2023/11/07 12:23:47;;;;;;;3.78;2.17;;;;;;;;;;10245449;28;20047;-59
2023/11/07 12:28:49;;;;;;;6.22;2.10;;;;;;;;;;10247145;28;20031;-59
2023/11/07 12:33:49;;;;;;;2.78;1.67;;;;;;;;;;10239392;28;20051;-58
2023/11/07 12:38:50;;;;;;;5.25;1.77;;;;;;;;;;10247175;28;20035;-58
2023/11/07 12:43:51;;;;;;;3.22;1.98;;;;;;;;;;10246119;28;20027;-58
2023/11/07 12:48:54;;;;;;;6.28;1.70;;;;;;;;;;10245422;28;20062;-59
2023/11/07 12:53:55;;;;;;;5.03;1.95;;;;;;;;;;10246316;28;20402;-59
2023/11/07 12:59:09;;;;;;;2.35;1.77;;;;;;;;;;10204450;29;20052;-59
2023/11/07 13:04:15;;;;;;;3.30;1.90;;;;;;;;;;10206407;29;20043;-58
2023/11/07 13:09:20;;;;;;;5.30;2.00;;;;;;;;;;10202371;29;20035;-59
2023/11/07 13:14:20;;;;;;;3.90;2.10;;;;;;;;;;10203637;29;20028;-58
2023/11/07 13:19:21;;;;;;;7.57;2.53;;;;;;;;;;10207287;29;20035;-59
2023/11/07 13:24:25;;;;;;;6.78;2.72;;;;;;;;;;10196703;29;20031;-58
2023/11/07 13:29:27;;;;;;;8.00;2.70;;;;;;;;;;10204351;29;20143;-59
2023/11/07 13:34:27;;;;;;;5.70;2.45;;;;;;;;;;10200559;29;20134;-59
2023/11/07 13:39:30;;;;;;;5.85;2.60;;;;;;;;;;10205728;29;20037;-60
2023/11/07 13:44:31;;;;;;;7.85;2.80;;;;;;;;;;10205855;29;20039;-59
2023/11/07 13:49:32;;;;;;;5.70;2.45;;;;;;;;;;10201184;29;20043;-58
2023/11/07 13:54:32;;;;;;;8.00;2.95;;;;;;;;;;10207465;28;20054;-58
2023/11/07 13:59:33;;;;;;;5.20;2.50;;;;;;;;;;10238179;28;20042;-60
2023/11/07 14:04:34;;;;;;;9.23;2.50;;;;;;;;;;10242581;28;20174;-59
2023/11/07 14:09:35;;;;;;;4.78;2.25;;;;;;;;;;10244591;28;20551;-59
2023/11/07 14:14:35;;;;;;;8.57;2.80;;;;;;;;;;10243098;28;20510;-59
2023/11/07 14:19:36;;;;;;;4.88;2.70;;;;;;;;;;10233906;28;20423;-60
2023/11/07 14:24:38;;;;;;;9.60;2.75;;;;;;;;;;10237749;28;20057;-61
2023/11/07 14:29:41;;;;;;;7.47;2.38;;;;;;;;;;10254393;28;20103;-58
2023/11/07 14:34:42;;;;;;;9.80;2.60;;;;;;;;;;10217877;28;20115;-61
2023/11/07 14:39:42;;;;;;;13.10;2.97;;;;;;;;;;10198682;28;20398;-60
2023/11/07 14:44:44;;;;;;;5.45;2.90;;;;;;;;;;10218757;28;20364;-59
2023/11/07 14:49:46;;;;;;;10.50;2.42;;;;;;;;;;10237180;28;20023;-60
2023/11/07 14:54:46;;;;;;;6.07;2.67;;;;;;;;;;10207054;28;20094;-60
2023/11/07 14:59:47;;;;;;;10.40;3.50;;;;;;;;;;10238215;28;20210;-59
2023/11/07 15:04:48;;;;;;;7.70;2.60;;;;;;;;;;10244869;28;20031;-60
2023/11/07 15:09:49;;;;;;;7.38;2.65;;;;;;;;;;10234662;28;20035;-59
2023/11/07 15:14:50;;;;;;;10.13;2.67;;;;;;;;;;10244806;28;20043;-59
2023/11/07 15:19:51;;;;;;;6.57;2.40;;;;;;;;;;10227922;28;20042;-60
2023/11/07 15:24:52;;;;;;;5.47;2.45;;;;;;;;;;10238612;28;20043;-62
2023/11/07 15:29:53;;;;;;;5.20;2.38;;;;;;;;;;10241018;28;20031;-60
2023/11/07 15:34:54;;;;;;;6.22;2.67;;;;;;;;;;10233903;28;20388;-60
2023/11/07 15:39:55;;;;;;;5.30;2.25;;;;;;;;;;10245196;28;20035;-60
2023/11/07 15:44:57;;;;;;;8.98;2.67;;;;;;;;;;10241919;28;20476;-61
2023/11/07 15:49:57;;;;;;;6.80;2.80;;;;;;;;;;10240587;28;20426;-59
2023/11/07 15:54:58;;;;;;;13.70;3.17;;;;;;;;;;10234611;28;20040;-59
2023/11/07 15:59:59;;;;;;;7.53;2.50;;;;;;;;;;10229543;28;20035;-60
2023/11/07 16:04:59;;;;;;;5.30;2.38;;;;;;;;;;10234723;28;20078;-60
2023/11/07 16:10:00;;;;;;;9.02;3.00;;;;;;;;;;10240370;28;20035;-61
2023/11/07 16:15:05;;;;;;;4.05;2.28;;;;;;;;;;10242604;28;20035;-60
2023/11/07 16:20:08;;;;;;;5.47;2.17;;;;;;;;;;10243794;28;20019;-60
2023/11/07 16:25:09;;;;;;;9.23;2.70;;;;;;;;;;10239055;28;20598;-62
2023/11/07 16:30:10;;;;;;;7.90;2.50;;;;;;;;;;10246010;28;20031;-60
2023/11/07 16:35:12;;;;;;;6.07;2.95;;;;;;;;;;10243076;28;20050;-61
2023/11/07 16:40:14;;;;;;;6.88;2.75;;;;;;;;;;10247392;28;20058;-61
2023/11/07 16:45:15;;;;;;;7.13;2.67;;;;;;;;;;10244578;28;20506;-60
2023/11/07 16:50:16;;;;;;;5.20;2.03;;;;;;;;;;10244366;28;20042;-62
2023/11/07 16:55:16;;;;;;;5.88;2.35;;;;;;;;;;10239789;28;20644;-62
2023/11/07 17:00:20;;;;;;;6.22;2.25;;;;;;;;;;10243221;28;20039;-62
2023/11/07 17:05:21;;;;;;;4.68;2.17;;;;;;;;;;10245242;28;20625;-60
2023/11/07 17:10:22;;;;;;;10.93;2.72;;;;;;;;;;10248759;28;20035;-60
2023/11/07 17:15:24;;;;;;;5.65;2.30;;;;;;;;;;10244855;28;20035;-60
2023/11/07 17:20:35;;;;;;;4.40;2.20;;;;;;;;;;10248649;28;20074;-60
2023/11/07 17:25:36;;;;;;;5.70;2.28;;;;;;;;;;10238552;28;20509;-61
2023/11/07 17:30:37;;;;;;;3.13;1.95;;;;;;;;;;10246637;28;20038;-59
2023/11/07 17:35:38;;;;;;;3.92;2.50;;;;;;;;;;10248466;28;20042;-59
2023/11/07 17:40:38;;;;;;;3.33;1.90;;;;;;;;;;10246675;28;20031;-60
2023/11/07 17:45:39;;;;;;;5.32;2.42;;;;;;;;;;10234515;28;20035;-60
2023/11/07 17:50:40;;;;;;;3.58;2.42;;;;;;;;;;10231391;28;20045;-60
2023/11/07 17:55:40;;;;;;;4.45;2.63;;;;;;;;;;10247095;28;20047;-60
2023/11/07 18:00:41;;;;;;;8.25;2.63;;;;;;;;;;10244969;28;20360;-60
2023/11/07 18:05:43;;;;;;;7.25;2.38;;;;;;;;;;10235641;28;20028;-60
2023/11/07 18:10:45;;;;;;;5.38;2.30;;;;;;;;;;10256761;28;20412;-59
2023/11/07 18:15:46;;;;;;;4.45;2.10;;;;;;;;;;10248162;28;20052;-60
2023/11/07 18:20:47;;;;;;;5.03;2.30;;;;;;;;;;10243882;28;20051;-59
2023/11/07 18:25:48;;;;;;;7.20;2.35;;;;;;;;;;10249561;28;20111;-59
2023/11/07 18:30:48;;;;;;;5.18;2.05;;;;;;;;;;10242567;28;20632;-60
2023/11/07 18:35:49;;;;;;;4.35;2.67;;;;;;;;;;10249739;28;20027;-59
2023/11/07 18:40:51;;;;;;;5.47;2.75;;;;;;;;;;10248930;28;20038;-59
2023/11/07 18:45:53;;;;;;;4.00;2.00;;;;;;;;;;10247346;28;20039;-60
2023/11/07 18:50:53;;;;;;;4.70;2.30;;;;;;;;;;10250991;28;20027;-59
2023/11/07 18:55:54;;;;;;;5.20;2.22;;;;;;;;;;10248162;28;20051;-60
2023/11/07 19:00:55;;;;;;;5.80;2.80;;;;;;;;;;10250858;28;20040;-60
2023/11/07 19:05:55;;;;;;;4.10;2.42;;;;;;;;;;10233530;28;20054;-59
2023/11/07 19:10:56;;;;;;;7.78;2.67;;;;;;;;;;10240073;28;20650;-61
2023/11/07 19:15:56;;;;;;;4.38;2.40;;;;;;;;;;10237944;28;20031;-60
2023/11/07 19:20:57;;;;;;;6.90;2.70;;;;;;;;;;10237430;28;20043;-61
2023/11/07 19:25:58;;;;;;;13.65;3.00;;;;;;;;;;10239940;28;20034;-60
2023/11/07 19:30:58;;;;;;;9.00;3.30;;;;;;;;;;10235218;29;20063;-60
2023/11/07 19:36:02;;;;;;;18.90;5.22;;;;;;;;;;10228411;28;20027;-60
2023/11/07 19:41:03;;;;;;;8.23;3.95;;;;;;;;;;10225070;28;20038;-60
2023/11/07 19:46:03;;;;;;;9.05;3.38;;;;;;;;;;10235766;28;20035;-59
2023/11/07 19:51:04;;;;;;;14.07;3.50;;;;;;;;;;10237758;29;20035;-59
2023/11/07 19:56:05;;;;;;;6.43;2.90;;;;;;;;;;10228398;28;20043;-60
2023/11/07 20:01:07;;;;;;;10.30;2.92;;;;;;;;;;10221006;29;20039;-60
2023/11/07 20:06:10;;;;;;;7.80;2.78;;;;;;;;;;10239887;28;20127;-59
2023/11/07 20:11:10;;;;;;;20.40;2.90;;;;;;;;;;10239205;28;20067;-60
2023/11/07 20:16:12;;;;;;;9.48;2.70;;;;;;;;;;10228598;28;20031;-60
2023/11/07 20:21:14;;;;;;;20.02;2.92;;;;;;;;;;10250981;29;20031;-60
2023/11/07 20:26:18;;;;;;;6.38;2.58;;;;;;;;;;10251501;28;20391;-60
2023/11/07 20:31:19;;;;;;;7.43;2.90;;;;;;;;;;10250806;28;20054;-60
2023/11/07 20:36:19;;;;;;;5.43;2.83;;;;;;;;;;10250899;28;20023;-60
2023/11/07 20:41:20;;;;;;;9.02;2.95;;;;;;;;;;10250427;28;20075;-60
2023/11/07 20:46:21;;;;;;;5.97;2.65;;;;;;;;;;10250257;28;20043;-60
2023/11/07 20:51:22;;;;;;;9.48;2.78;;;;;;;;;;10250129;28;20483;-61
2023/11/07 20:56:27;;;;;;;8.80;2.65;;;;;;;;;;10250332;28;20050;-60
2023/11/07 21:01:28;;;;;;;10.18;3.03;;;;;;;;;;10249828;28;20023;-60
2023/11/07 21:06:29;;;;;;;5.40;2.50;;;;;;;;;;10250254;28;20050;-60
2023/11/07 21:11:29;;;;;;;5.65;2.63;;;;;;;;;;10249838;28;20038;-60
2023/11/07 21:16:30;;;;;;;6.25;2.90;;;;;;;;;;10241091;28;20035;-60
2023/11/07 21:21:31;;;;;;;4.68;2.58;;;;;;;;;;10247956;28;20082;-60
2023/11/07 21:26:31;;;;;;;12.98;2.70;;;;;;;;;;10249017;28;20035;-60
2023/11/07 21:31:33;;;;;;;3.88;2.28;;;;;;;;;;10246272;28;20039;-59
2023/11/07 21:36:34;;;;;;;5.53;2.50;;;;;;;;;;10245183;28;20047;-59
2023/11/07 21:41:35;;;;;;;5.22;2.47;;;;;;;;;;10241725;28;20031;-60
2023/11/07 21:46:36;;;;;;;6.18;2.97;;;;;;;;;;10257399;28;20046;-59
2023/11/07 21:51:36;;;;;;;6.00;2.42;;;;;;;;;;10244397;28;20043;-60
2023/11/07 21:56:38;;;;;;;6.30;2.97;;;;;;;;;;10233841;28;20035;-59
2023/11/07 22:01:48;;;;;;;7.25;3.17;;;;;;;;;;10241839;28;20117;-60
2023/11/07 22:06:50;;;;;;;3.83;2.50;;;;;;;;;;10234380;28;20086;-60
2023/11/07 22:11:51;;;;;;;3.00;2.03;;;;;;;;;;10246431;28;20046;-60
2023/11/07 22:16:51;;;;;;;3.58;2.80;;;;;;;;;;10245514;28;20046;-59
2023/11/07 22:21:52;;;;;;;5.65;2.83;;;;;;;;;;10237965;28;20078;-59
2023/11/07 22:26:54;;;;;;;3.65;2.50;;;;;;;;;;10244890;28;20050;-60
2023/11/07 22:31:54;;;;;;;6.22;3.10;;;;;;;;;;10244865;28;20373;-60
2023/11/07 22:36:55;;;;;;;5.85;2.40;;;;;;;;;;10249396;28;20023;-60
2023/11/07 22:41:55;;;;;;;4.70;2.60;;;;;;;;;;10244428;28;20606;-59
2023/11/07 22:46:56;;;;;;;4.57;2.72;;;;;;;;;;10243509;28;20487;-59
2023/11/07 22:51:57;;;;;;;5.88;2.70;;;;;;;;;;10241636;28;20031;-60
2023/11/07 22:56:58;;;;;;;3.22;2.20;;;;;;;;;;10237791;28;20608;-61
2023/11/07 23:01:58;;;;;;;4.53;2.90;;;;;;;;;;10231262;28;20113;-60
2023/11/07 23:06:59;;;;;;;5.60;2.42;;;;;;;;;;10213763;28;20042;-61
2023/11/07 23:12:00;;;;;;;4.88;3.03;;;;;;;;;;10240652;28;20032;-61
2023/11/07 23:17:01;;;;;;;4.93;2.58;;;;;;;;;;10238598;28;20039;-62
2023/11/07 23:22:02;;;;;;;5.28;2.70;;;;;;;;;;10245035;28;20035;-62
2023/11/07 23:27:02;;;;;;;4.97;2.75;;;;;;;;;;10239168;28;20387;-61
2023/11/07 23:32:04;;;;;;;6.05;2.42;;;;;;;;;;10244909;28;20035;-60
2023/11/07 23:37:04;;;;;;;8.30;2.80;;;;;;;;;;10244123;28;20035;-60
2023/11/07 23:42:05;;;;;;;3.72;2.53;;;;;;;;;;10249303;28;20078;-60
2023/11/07 23:47:06;;;;;;;4.13;2.05;;;;;;;;;;10252281;28;20138;-60
2023/11/07 23:52:07;;;;;;;5.45;2.63;;;;;;;;;;10266114;28;20035;-60
2023/11/07 23:57:07;;;;;;;8.10;2.72;;;;;;;;;;10251747;28;20062;-60
